Time;durP1;ratioP1;P1;durP2;ratioP2;P2;SDS_P1;SDS_P2;PMS_P1;PMS_P2;Temp;Humidity;BMP_temperature;BMP_pressure;BME280_temperature;BME280_humidity;BME280_pressure;Samples;Min_cycle;Max_cycle;Signal;HPM_P1;HPM_P2
2022/04/27 00:01:25;;;;;;;14.20;6.70;;;8.80;99.90;;;;;;4911505;29;20049;-75
2022/04/27 00:03:52;;;;;;;13.38;5.93;;;8.90;99.90;;;;;;4911339;29;20045;-74
2022/04/27 00:06:17;;;;;;;13.18;6.20;;;8.90;99.90;;;;;;4910782;29;20061;-75
2022/04/27 00:08:43;;;;;;;13.40;5.70;;;8.80;99.90;;;;;;4912048;29;20068;-75
2022/04/27 00:11:09;;;;;;;18.15;6.43;;;8.90;99.90;;;;;;4896011;29;20064;-74
2022/04/27 00:13:34;;;;;;;15.77;6.13;;;9.00;99.90;;;;;;4912026;29;20104;-76
2022/04/27 00:16:00;;;;;;;14.63;5.65;;;8.90;99.90;;;;;;4893989;29;20130;-74
2022/04/27 00:18:26;;;;;;;14.32;5.63;;;9.00;99.90;;;;;;4910990;29;20127;-74
2022/04/27 00:20:52;;;;;;;14.65;5.22;;;9.00;99.90;;;;;;4913020;29;20088;-75
2022/04/27 00:23:17;;;;;;;8.18;4.18;;;9.10;99.90;;;;;;4896584;29;20048;-75
2022/04/27 00:25:44;;;;;;;19.65;6.22;;;9.00;99.90;;;;;;4912563;29;20060;-74
2022/04/27 00:28:15;;;;;;;13.85;4.88;;;9.10;99.90;;;;;;4912490;29;20041;-73
2022/04/27 00:30:41;;;;;;;13.10;5.25;;;9.10;99.90;;;;;;4912840;29;20096;-74
2022/04/27 00:33:06;;;;;;;16.35;6.10;;;9.10;99.90;;;;;;4913404;29;20047;-76
2022/04/27 00:35:32;;;;;;;16.38;5.55;;;9.10;99.90;;;;;;4896059;29;20056;-76
2022/04/27 00:37:58;;;;;;;17.15;4.95;;;9.10;99.90;;;;;;4912704;29;20048;-74
2022/04/27 00:40:23;;;;;;;10.63;5.07;;;9.80;99.90;;;;;;4895024;29;20096;-73
2022/04/27 00:42:49;;;;;;;15.60;5.82;;;9.10;99.90;;;;;;4896525;29;20057;-75
2022/04/27 00:45:15;;;;;;;13.77;5.60;;;9.10;99.90;;;;;;4896936;29;20072;-74
2022/04/27 00:47:40;;;;;;;11.95;5.13;;;9.10;99.90;;;;;;4911951;29;20427;-72
2022/04/27 00:50:06;;;;;;;9.70;5.45;;;9.20;99.90;;;;;;4913890;29;20037;-76
2022/04/27 00:52:33;;;;;;;11.40;4.28;;;9.20;99.90;;;;;;4912851;29;20044;-74
2022/04/27 00:54:59;;;;;;;12.77;5.18;;;9.10;99.90;;;;;;4915941;29;20096;-77
2022/04/27 00:57:33;;;;;;;11.68;4.80;;;9.20;99.90;;;;;;4914968;29;20403;-75
2022/04/27 00:59:59;;;;;;;12.88;5.00;;;9.30;99.90;;;;;;4900731;29;20076;-74
2022/04/27 01:02:24;;;;;;;9.93;3.90;;;9.10;99.90;;;;;;4916252;29;20044;-74
2022/04/27 01:04:50;;;;;;;16.50;4.90;;;9.10;99.90;;;;;;4916918;29;20088;-76
2022/04/27 01:07:17;;;;;;;10.90;4.30;;;9.10;99.90;;;;;;4917854;29;20136;-74
2022/04/27 01:09:43;;;;;;;13.98;4.57;;;9.10;99.90;;;;;;4917066;29;20072;-72
2022/04/27 01:12:09;;;;;;;9.43;4.50;;;9.10;99.90;;;;;;4915396;29;20096;-75
2022/04/27 01:14:42;;;;;;;14.25;5.82;;;9.10;99.90;;;;;;4915477;29;20350;-74
2022/04/27 01:17:08;;;;;;;10.52;4.72;;;9.10;99.90;;;;;;4914739;29;20120;-76
2022/04/27 01:19:34;;;;;;;8.85;4.88;;;9.10;99.90;;;;;;4916676;29;20045;-73
2022/04/27 01:22:02;;;;;;;10.57;4.28;;;9.10;99.90;;;;;;4914667;29;20040;-76
2022/04/27 01:24:28;;;;;;;10.40;4.68;;;9.20;99.90;;;;;;4916675;29;20052;-75
2022/04/27 01:26:53;;;;;;;18.67;4.68;;;9.20;99.90;;;;;;4899818;29;20059;-75
2022/04/27 01:29:50;;;;;;;15.38;4.68;;;9.20;99.90;;;;;;4914413;29;20044;-75
2022/04/27 01:32:16;;;;;;;13.68;4.70;;;9.20;99.90;;;;;;4915946;29;20036;-74
2022/04/27 01:34:41;;;;;;;10.15;4.10;;;9.20;99.90;;;;;;4916901;29;20047;-74
2022/04/27 01:39:52;;;;;;;10.93;4.10;;;9.20;99.90;;;;;;4915330;29;20109;-74
2022/04/27 01:42:18;;;;;;;11.90;4.30;;;9.20;99.90;;;;;;4916425;29;20040;-74
2022/04/27 01:45:06;;;;;;;6.57;3.28;;;9.20;99.90;;;;;;4899462;29;20063;-75
2022/04/27 01:47:32;;;;;;;9.98;3.80;;;9.20;99.90;;;;;;4898813;29;20053;-74
2022/04/27 01:49:58;;;;;;;10.02;3.83;;;9.00;99.90;;;;;;4915951;29;20047;-74
2022/04/27 01:55:08;;;;;;;13.55;3.85;;;9.00;99.90;;;;;;4914768;29;20434;-71
2022/04/27 01:57:34;;;;;;;11.15;2.70;;;9.30;99.90;;;;;;4915111;29;20064;-71
2022/04/27 02:00:28;;;;;;;11.43;3.00;;;9.40;99.90;;;;;;4915118;29;20068;-73
2022/04/27 02:02:54;;;;;;;7.93;3.17;;;9.30;99.90;;;;;;4916071;29;20116;-73
2022/04/27 02:05:21;;;;;;;6.47;2.60;;;9.20;99.90;;;;;;4899105;29;20055;-73
2022/04/27 02:07:47;;;;;;;10.05;3.53;;;;;;;;;;4913780;29;20052;-73
2022/04/27 02:10:13;;;;;;;7.40;2.72;;;9.20;99.90;;;;;;4915708;29;20395;-73
2022/04/27 02:12:39;;;;;;;8.30;3.08;;;;;;;;;;4912503;29;20079;-75
2022/04/27 02:15:06;;;;;;;6.38;3.35;;;9.20;99.90;;;;;;4915727;29;20040;-73
2022/04/27 02:17:32;;;;;;;6.75;2.85;;;9.10;99.90;;;;;;4897582;29;20140;-72
2022/04/27 02:19:58;;;;;;;8.95;4.03;;;9.40;99.90;;;;;;4914033;29;20104;-73
2022/04/27 02:22:23;;;;;;;11.88;3.58;;;9.30;99.90;;;;;;4898846;29;20052;-72
2022/04/27 02:24:49;;;;;;;7.45;3.08;;;9.60;99.90;;;;;;4915324;29;20051;-72
2022/04/27 02:27:15;;;;;;;6.03;2.92;;;9.50;99.90;;;;;;4898940;29;20095;-74
2022/04/27 02:29:41;;;;;;;11.52;3.70;;;9.50;99.90;;;;;;4882918;29;20044;-74
2022/04/27 02:32:07;;;;;;;14.85;3.80;;;;;;;;;;4915343;29;20048;-74
2022/04/27 02:34:33;;;;;;;12.15;4.85;;;9.10;99.90;;;;;;4898871;29;20049;-74
2022/04/27 02:36:58;;;;;;;11.23;3.97;;;9.10;99.90;;;;;;4915674;29;20041;-75
2022/04/27 02:39:24;;;;;;;10.25;3.60;;;9.00;99.90;;;;;;4915550;29;20044;-75
2022/04/27 02:41:50;;;;;;;6.25;3.47;;;9.00;99.90;;;;;;4912990;29;20052;-74
2022/04/27 02:44:15;;;;;;;13.23;3.13;;;9.00;99.90;;;;;;4897825;29;20044;-73
2022/04/27 02:46:41;;;;;;;8.98;3.05;;;9.10;99.90;;;;;;4897823;29;20080;-73
2022/04/27 02:51:58;;;;;;;11.38;2.90;;;9.20;99.90;;;;;;4856306;29;20085;-74
2022/04/27 02:54:24;;;;;;;12.15;3.67;;;9.20;99.90;;;;;;4840401;29;20065;-74
2022/04/27 02:56:50;;;;;;;7.75;2.92;;;9.10;99.90;;;;;;4854605;29;20086;-74
2022/04/27 02:59:16;;;;;;;8.48;3.15;;;9.10;99.90;;;;;;4855431;29;20122;-74
2022/04/27 03:01:42;;;;;;;6.85;3.40;;;9.10;99.90;;;;;;4841093;29;20114;-73
2022/04/27 03:04:09;;;;;;;7.57;2.83;;;9.10;99.90;;;;;;4856813;29;20057;-74
2022/04/27 03:06:35;;;;;;;10.30;3.42;;;9.10;99.90;;;;;;4857098;29;20043;-74
2022/04/27 03:09:00;;;;;;;9.23;3.20;;;9.10;99.90;;;;;;4857466;29;20054;-73
2022/04/27 03:11:26;;;;;;;11.70;4.20;;;9.00;99.90;;;;;;4840779;29;20153;-73
2022/04/27 03:13:52;;;;;;;9.88;2.88;;;9.20;99.90;;;;;;4841859;29;20113;-73
2022/04/27 03:16:17;;;;;;;7.47;2.05;;;9.20;99.90;;;;;;4854666;29;20148;-73
2022/04/27 03:18:43;;;;;;;7.22;3.17;;;9.20;99.90;;;;;;4855481;29;20065;-75
2022/04/27 03:21:10;;;;;;;10.57;3.55;;;9.30;99.90;;;;;;4840927;29;20064;-71
2022/04/27 03:23:36;;;;;;;8.30;3.97;;;9.20;99.90;;;;;;4857024;29;20084;-71
2022/04/27 03:26:02;;;;;;;6.45;3.53;;;;;;;;;;4856872;29;20038;-74
2022/04/27 03:28:33;;;;;;;8.57;3.53;;;;;;;;;;4879540;29;20101;-75
2022/04/27 03:30:59;;;;;;;7.60;3.13;;;;;;;;;;4914285;29;20040;-73
2022/04/27 03:33:25;;;;;;;4.95;2.55;;;;;;;;;;4913513;29;20044;-74
2022/04/27 03:35:52;;;;;;;8.85;2.70;;;;;;;;;;4913708;29;20052;-74
2022/04/27 03:38:18;;;;;;;9.10;3.30;;;9.30;99.90;;;;;;4912483;29;20084;-73
2022/04/27 03:40:46;;;;;;;9.73;3.05;;;9.30;99.90;;;;;;4911798;29;20071;-73
2022/04/27 03:43:12;;;;;;;8.30;3.08;;;9.00;99.90;;;;;;4910885;29;20058;-74
2022/04/27 03:45:43;;;;;;;8.27;3.40;;;9.00;99.90;;;;;;4913361;29;20051;-73
2022/04/27 03:48:09;;;;;;;9.68;3.17;;;9.10;99.90;;;;;;4913944;29;20045;-74
2022/04/27 03:50:35;;;;;;;10.18;2.80;;;9.00;99.90;;;;;;4914100;29;20052;-74
2022/04/27 03:53:01;;;;;;;7.28;2.70;;;9.00;99.90;;;;;;4914590;29;20118;-75
2022/04/27 03:55:28;;;;;;;12.65;3.28;;;9.00;99.90;;;;;;4914281;29;20065;-75
2022/04/27 03:57:54;;;;;;;7.07;3.00;;;8.90;99.90;;;;;;4914113;29;20072;-73
2022/04/27 04:00:29;;;;;;;6.00;2.35;;;8.80;99.90;;;;;;4913536;29;20049;-75
2022/04/27 04:02:55;;;;;;;5.43;2.67;;;8.90;99.90;;;;;;4913360;29;20108;-74
2022/04/27 04:05:22;;;;;;;6.80;3.08;;;9.00;99.90;;;;;;4913433;29;20044;-73
2022/04/27 04:07:47;;;;;;;8.63;2.95;;;9.00;99.90;;;;;;4913270;29;20037;-72
2022/04/27 04:10:13;;;;;;;7.40;2.55;;;9.00;99.90;;;;;;4913266;29;20090;-72
2022/04/27 04:12:39;;;;;;;11.55;3.15;;;9.10;99.90;;;;;;4914074;29;20036;-75
2022/04/27 04:15:14;;;;;;;10.43;3.05;;;9.00;99.90;;;;;;4912338;29;20051;-75
2022/04/27 04:17:46;;;;;;;6.10;2.72;;;9.00;99.90;;;;;;4913586;29;20104;-74
2022/04/27 04:20:17;;;;;;;8.27;2.95;;;9.00;99.90;;;;;;4897010;29;20052;-75
2022/04/27 04:22:43;;;;;;;5.25;2.80;;;9.00;99.90;;;;;;4911757;29;20059;-74
2022/04/27 04:30:43;;;;;;;4.85;2.47;;;8.90;99.90;;;;;;4914940;29;20050;-73
2022/04/27 04:33:09;;;;;;;5.15;2.60;;;9.00;99.90;;;;;;4915083;29;20347;-75
2022/04/27 04:35:36;;;;;;;7.28;2.78;;;8.90;99.90;;;;;;4914714;29;20044;-75
2022/04/27 04:38:04;;;;;;;7.47;2.65;;;9.30;99.90;;;;;;4914855;29;20045;-75
2022/04/27 04:40:30;;;;;;;8.82;2.92;;;9.10;99.90;;;;;;4915352;29;20033;-74
2022/04/27 04:42:56;;;;;;;4.20;2.58;;;9.00;99.90;;;;;;4915823;29;20028;-74
2022/04/27 04:45:23;;;;;;;9.27;2.42;;;9.30;99.90;;;;;;4914222;29;20037;-73
2022/04/27 04:47:49;;;;;;;7.32;2.55;;;9.10;99.90;;;;;;4914827;29;20044;-72
2022/04/27 04:50:15;;;;;;;15.63;2.50;;;9.00;99.90;;;;;;4897995;29;20040;-74
2022/04/27 04:52:41;;;;;;;7.55;2.50;;;9.00;99.90;;;;;;4915027;29;20047;-74
2022/04/27 04:55:07;;;;;;;3.47;2.05;;;9.10;99.90;;;;;;4915156;29;20105;-75
2022/04/27 04:57:32;;;;;;;9.45;3.13;;;9.10;99.90;;;;;;4914922;29;20130;-74
2022/04/27 04:59:58;;;;;;;4.55;2.00;;;9.20;99.90;;;;;;4914019;29;20041;-75
2022/04/27 05:02:24;;;;;;;9.05;2.88;;;9.20;99.90;;;;;;4896725;29;20502;-72
2022/04/27 05:04:51;;;;;;;6.40;3.08;;;9.20;99.90;;;;;;4912221;29;20044;-73
2022/04/27 05:07:18;;;;;;;7.40;2.85;;;9.20;99.90;;;;;;4914016;29;20040;-74
2022/04/27 05:09:45;;;;;;;8.73;2.60;;;9.20;99.90;;;;;;4914886;29;20048;-73
2022/04/27 05:12:11;;;;;;;7.22;2.50;;;9.30;99.90;;;;;;4912805;29;20445;-75
2022/04/27 05:14:36;;;;;;;6.35;2.88;;;9.30;99.90;;;;;;4895917;29;20057;-74
2022/04/27 05:17:02;;;;;;;6.20;2.13;;;10.60;99.90;;;;;;4910978;29;20059;-78
2022/04/27 05:19:28;;;;;;;6.20;2.78;;;9.40;99.90;;;;;;4897797;29;20375;-74
2022/04/27 05:21:53;;;;;;;7.90;2.50;;;9.40;99.90;;;;;;4915594;29;20064;-74
2022/04/27 05:24:19;;;;;;;8.35;2.55;;;9.40;99.90;;;;;;4915288;29;20069;-76
2022/04/27 05:26:45;;;;;;;5.35;2.40;;;9.40;99.90;;;;;;4915670;29;20069;-75
2022/04/27 05:32:05;;;;;;;9.27;2.33;;;10.40;99.90;;;;;;4898966;29;20044;-74
2022/04/27 05:34:33;;;;;;;8.25;2.88;;;9.60;99.90;;;;;;4916661;29;20044;-73
2022/04/27 05:37:00;;;;;;;5.10;2.70;;;9.70;99.90;;;;;;4899541;29;20068;-75
2022/04/27 05:39:26;;;;;;;4.07;2.33;;;9.60;99.90;;;;;;4915194;29;20067;-73
2022/04/27 05:41:53;;;;;;;7.35;2.65;;;9.60;99.90;;;;;;4917800;29;20451;-76
2022/04/27 05:44:22;;;;;;;5.25;2.58;;;9.90;99.90;;;;;;4918009;29;20049;-75
2022/04/27 05:46:49;;;;;;;5.90;2.55;;;10.00;99.90;;;;;;4884466;29;20048;-77
2022/04/27 05:49:15;;;;;;;8.23;2.65;;;10.40;99.90;;;;;;4900581;29;20068;-75
2022/04/27 05:51:41;;;;;;;4.68;2.47;;;10.10;99.90;;;;;;4919437;29;20020;-76
2022/04/27 05:54:07;;;;;;;6.53;2.58;;;10.60;99.90;;;;;;4918411;29;20065;-74
2022/04/27 05:56:32;;;;;;;4.25;2.08;;;10.00;99.90;;;;;;4916933;29;20049;-75
2022/04/27 05:58:58;;;;;;;9.50;3.35;;;10.10;99.90;;;;;;4900366;29;20060;-75
2022/04/27 06:01:40;;;;;;;8.73;3.38;;;10.10;99.90;;;;;;4902434;29;20076;-74
2022/04/27 06:04:06;;;;;;;5.43;2.40;;;10.50;99.90;;;;;;4919068;29;20045;-76
2022/04/27 06:06:31;;;;;;;8.02;3.20;;;10.30;99.90;;;;;;4903403;29;20055;-75
2022/04/27 06:08:58;;;;;;;3.25;1.83;;;;;;;;;;4918729;29;20040;-75
2022/04/27 06:11:23;;;;;;;6.35;2.05;;;9.60;99.90;;;;;;4919737;29;20048;-75
2022/04/27 06:13:49;;;;;;;6.72;2.08;;;;;;;;;;4919675;29;20076;-77
2022/04/27 06:16:16;;;;;;;5.60;2.28;;;10.20;99.90;;;;;;4917143;29;20573;-75
2022/04/27 06:18:42;;;;;;;6.50;1.90;;;;;;;;;;4919341;29;20041;-75
2022/04/27 06:21:09;;;;;;;4.85;1.50;;;;;;;;;;4918978;29;20076;-75
2022/04/27 06:23:37;;;;;;;4.15;1.27;;;10.10;98.60;;;;;;4903157;29;20037;-76
2022/04/27 06:26:04;;;;;;;4.93;1.88;;;10.40;99.70;;;;;;4917966;29;20049;-75
2022/04/27 06:28:30;;;;;;;8.57;2.33;;;;;;;;;;4918398;29;20068;-73
2022/04/27 06:30:56;;;;;;;5.90;1.67;;;;;;;;;;4916551;29;20107;-76
2022/04/27 06:33:22;;;;;;;8.27;1.75;;;;;;;;;;4919358;29;20047;-75
2022/04/27 06:35:48;;;;;;;3.80;1.83;;;12.40;99.90;;;;;;4903334;29;20049;-72
2022/04/27 06:38:13;;;;;;;2.55;1.30;;;10.50;97.40;;;;;;4919851;29;20052;-75
2022/04/27 06:40:40;;;;;;;3.42;1.50;;;10.50;97.40;;;;;;4920002;29;20067;-75
2022/04/27 06:43:07;;;;;;;6.50;1.80;;;10.60;97.40;;;;;;4918969;29;20048;-75
2022/04/27 06:46:10;;;;;;;5.90;1.63;;;10.60;97.50;;;;;;4914962;29;20037;-76
2022/04/27 06:48:36;;;;;;;5.70;1.95;;;10.70;96.80;;;;;;4918367;29;20040;-74
2022/04/27 06:51:01;;;;;;;7.28;2.00;;;10.70;96.90;;;;;;4918620;29;20092;-75
2022/04/27 06:53:27;;;;;;;7.32;2.05;;;10.80;96.70;;;;;;4918440;29;20049;-74
2022/04/27 06:55:53;;;;;;;4.80;1.60;;;10.80;96.40;;;;;;4902460;29;20068;-75
2022/04/27 06:58:18;;;;;;;7.53;1.88;;;10.80;96.20;;;;;;4918706;29;20469;-75
2022/04/27 07:00:44;;;;;;;3.90;1.45;;;11.00;96.00;;;;;;4918587;29;20048;-74
2022/04/27 07:03:10;;;;;;;4.43;1.40;;;10.90;96.00;;;;;;4919101;29;20100;-74
2022/04/27 07:05:35;;;;;;;7.97;1.35;;;11.00;96.20;;;;;;4919698;29;20048;-74
2022/04/27 07:08:01;;;;;;;5.22;1.55;;;11.10;95.80;;;;;;4919455;29;20045;-74
2022/04/27 07:10:36;;;;;;;5.30;1.58;;;11.10;96.00;;;;;;4902313;29;20037;-73
2022/04/27 07:13:02;;;;;;;3.53;1.23;;;11.10;95.40;;;;;;4905578;29;20071;-74
2022/04/27 07:16:21;;;;;;;7.78;1.83;;;11.30;95.40;;;;;;4918172;29;20040;-74
2022/04/27 07:18:48;;;;;;;5.38;1.65;;;11.20;95.10;;;;;;4918951;29;20070;-74
2022/04/27 07:21:14;;;;;;;4.85;1.60;;;11.20;95.60;;;;;;4917149;29;20059;-73
2022/04/27 07:23:40;;;;;;;5.15;1.63;;;11.20;95.00;;;;;;4919307;29;20044;-73
2022/04/27 07:26:08;;;;;;;5.13;1.65;;;11.30;95.20;;;;;;4920035;29;20104;-74
2022/04/27 07:28:38;;;;;;;9.60;1.73;;;11.30;94.70;;;;;;4888363;29;20043;-74
2022/04/27 07:31:05;;;;;;;5.32;1.73;;;11.30;95.00;;;;;;4902487;29;20052;-74
2022/04/27 07:33:31;;;;;;;4.13;1.33;;;11.50;95.30;;;;;;4919351;29;20104;-72
2022/04/27 07:35:57;;;;;;;7.45;2.47;;;11.50;95.40;;;;;;4920149;29;20067;-74
2022/04/27 07:38:22;;;;;;;4.63;1.63;;;11.60;94.80;;;;;;4920155;29;20037;-74
2022/04/27 07:40:48;;;;;;;6.70;1.80;;;11.60;94.80;;;;;;4904028;29;20078;-73
2022/04/27 07:43:14;;;;;;;7.90;1.70;;;11.70;94.60;;;;;;4904597;29;20040;-75
2022/04/27 07:45:44;;;;;;;3.90;1.65;;;12.10;94.30;;;;;;4919860;29;20117;-75
2022/04/27 07:48:10;;;;;;;5.68;1.80;;;11.60;94.20;;;;;;4918618;29;20060;-74
2022/04/27 07:50:36;;;;;;;6.38;1.63;;;11.60;93.90;;;;;;4899978;29;20045;-73
2022/04/27 07:53:02;;;;;;;10.95;1.90;;;11.70;93.90;;;;;;4903216;29;20052;-74
2022/04/27 07:55:29;;;;;;;10.57;2.38;;;11.60;94.00;;;;;;4904581;29;20041;-75
2022/04/27 07:57:55;;;;;;;5.05;1.60;;;11.50;94.00;;;;;;4919384;29;20068;-75
2022/04/27 08:00:21;;;;;;;11.38;3.15;;;11.70;93.90;;;;;;4920808;29;20045;-75
2022/04/27 08:02:57;;;;;;;9.55;2.65;;;11.70;94.50;;;;;;4920987;29;20024;-75
2022/04/27 08:05:22;;;;;;;10.38;2.08;;;11.70;95.10;;;;;;4904110;29;20118;-74
2022/04/27 08:07:48;;;;;;;7.93;1.95;;;11.60;95.30;;;;;;4920502;29;20087;-74
2022/04/27 08:10:19;;;;;;;7.82;2.03;;;11.60;95.40;;;;;;4919873;29;20029;-75
2022/04/27 08:12:49;;;;;;;11.38;2.92;;;;;;;;;;4920568;29;20113;-74
2022/04/27 08:15:20;;;;;;;12.05;3.13;;;11.50;95.80;;;;;;4919918;29;20044;-73
2022/04/27 08:18:11;;;;;;;8.13;2.42;;;11.80;96.40;;;;;;4916943;29;20052;-73
2022/04/27 08:23:23;;;;;;;15.88;4.57;;;11.60;96.90;;;;;;4920341;29;20029;-75
2022/04/27 08:25:50;;;;;;;11.68;3.13;;;11.60;96.90;;;;;;4920437;29;20028;-73
2022/04/27 08:28:17;;;;;;;12.75;2.75;;;11.70;97.00;;;;;;4920532;29;20363;-73
2022/04/27 08:30:44;;;;;;;10.32;2.92;;;11.60;97.10;;;;;;4920109;29;20112;-73
2022/04/27 08:33:12;;;;;;;9.73;2.63;;;11.30;97.10;;;;;;4919754;29;20096;-74
2022/04/27 08:35:38;;;;;;;11.30;2.75;;;;;;;;;;4920073;29;20069;-74
2022/04/27 08:38:05;;;;;;;14.27;3.60;;;12.10;99.90;;;;;;4919618;29;20384;-74
2022/04/27 08:40:34;;;;;;;11.05;3.00;;;12.00;97.50;;;;;;4917237;29;20028;-72
2022/04/27 08:43:02;;;;;;;12.98;2.80;;;12.10;97.50;;;;;;4919172;29;20015;-74
2022/04/27 08:45:29;;;;;;;13.55;3.33;;;;;;;;;;4920398;29;20033;-74
2022/04/27 08:48:38;;;;;;;14.68;3.47;;;12.10;99.90;;;;;;4920924;29;20040;-73
2022/04/27 08:51:05;;;;;;;16.38;2.90;;;12.20;99.90;;;;;;4920273;29;20438;-74
2022/04/27 08:53:31;;;;;;;13.77;3.08;;;12.40;99.90;;;;;;4918281;29;20024;-75
2022/04/27 08:55:57;;;;;;;13.90;2.97;;;12.20;99.90;;;;;;4918495;29;20044;-75
2022/04/27 08:58:24;;;;;;;14.00;3.13;;;12.50;99.90;;;;;;4903474;29;20080;-75
2022/04/27 09:00:50;;;;;;;12.25;2.95;;;12.40;99.90;;;;;;4919751;29;20194;-75
2022/04/27 09:03:27;;;;;;;12.82;2.83;;;12.20;99.90;;;;;;4903290;29;20111;-74
2022/04/27 09:05:55;;;;;;;15.02;3.47;;;12.10;99.90;;;;;;4917829;29;20051;-74
2022/04/27 09:08:24;;;;;;;19.30;4.53;;;12.80;99.90;;;;;;4919126;29;20033;-73
2022/04/27 09:10:50;;;;;;;15.50;3.15;;;12.10;99.90;;;;;;4919267;29;20064;-74
2022/04/27 09:13:15;;;;;;;10.77;3.15;;;12.20;99.90;;;;;;4918561;29;20032;-73
2022/04/27 09:15:42;;;;;;;17.08;3.95;;;12.00;98.90;;;;;;4923129;29;20044;-74
2022/04/27 09:21:57;;;;;;;14.60;2.92;;;11.80;97.10;;;;;;4922640;29;20039;-74
2022/04/27 09:24:23;;;;;;;16.17;2.88;;;11.70;97.10;;;;;;4920853;29;20037;-74
2022/04/27 09:26:59;;;;;;;15.38;3.28;;;11.70;97.40;;;;;;4922824;29;20066;-74
2022/04/27 09:29:25;;;;;;;16.33;3.38;;;12.50;97.10;;;;;;4922450;29;20044;-76
2022/04/27 09:35:36;;;;;;;20.67;3.28;;;11.80;97.20;;;;;;4922184;29;20051;-75
2022/04/27 09:38:21;;;;;;;15.93;2.83;;;11.90;97.30;;;;;;4922721;29;20025;-74
2022/04/27 09:40:48;;;;;;;8.07;2.22;;;11.70;97.10;;;;;;4922391;29;20324;-74
2022/04/27 09:43:15;;;;;;;13.15;3.05;;;11.70;97.40;;;;;;4906498;29;20044;-74
2022/04/27 09:45:45;;;;;;;15.73;3.17;;;;;;;;;;4905539;29;20049;-76
2022/04/27 09:48:18;;;;;;;13.00;3.20;;;11.50;97.00;;;;;;4919280;29;20047;-75
2022/04/27 09:51:01;;;;;;;14.00;3.40;;;11.90;97.50;;;;;;4919869;29;20055;-74
2022/04/27 09:53:27;;;;;;;12.63;2.92;;;11.50;97.30;;;;;;4902849;29;20045;-74
2022/04/27 09:55:54;;;;;;;19.25;2.45;;;11.50;97.60;;;;;;4899989;29;20084;-74
2022/04/27 09:58:23;;;;;;;10.68;2.67;;;11.50;97.50;;;;;;4919647;29;20466;-75
2022/04/27 10:00:49;;;;;;;18.25;3.40;;;11.40;97.60;;;;;;4917371;29;20048;-74
2022/04/27 10:03:25;;;;;;;17.88;3.45;;;11.50;97.80;;;;;;4902798;29;20067;-75
2022/04/27 10:05:51;;;;;;;24.55;3.85;;;11.50;97.70;;;;;;4920411;29;20052;-75
2022/04/27 10:08:19;;;;;;;10.55;2.70;;;11.50;97.80;;;;;;4920205;29;20040;-74
2022/04/27 10:10:46;;;;;;;13.52;3.08;;;11.60;97.60;;;;;;4922326;29;20028;-75
2022/04/27 10:13:14;;;;;;;14.77;2.88;;;11.50;97.60;;;;;;4922128;29;20061;-73
2022/04/27 10:15:42;;;;;;;13.48;2.65;;;11.50;97.70;;;;;;4905478;29;20052;-73
2022/04/27 10:18:20;;;;;;;16.98;3.38;;;11.50;97.70;;;;;;4921409;29;20100;-74
2022/04/27 10:20:51;;;;;;;21.70;3.20;;;12.20;99.90;;;;;;4920737;29;20029;-74
2022/04/27 10:23:31;;;;;;;15.90;3.63;;;11.80;97.60;;;;;;4921539;29;20131;-72
2022/04/27 10:26:17;;;;;;;15.07;3.20;;;11.90;97.30;;;;;;4920606;29;20056;-74
2022/04/27 10:28:49;;;;;;;14.73;2.65;;;11.90;97.30;;;;;;4921161;29;20044;-74
2022/04/27 10:31:40;;;;;;;9.95;2.80;;;11.80;97.40;;;;;;4905989;29;20063;-76
2022/04/27 10:34:18;;;;;;;10.38;2.50;;;12.00;97.10;;;;;;4921274;29;20044;-74
2022/04/27 10:36:48;;;;;;;13.05;3.35;;;12.00;97.30;;;;;;4919646;29;20052;-72
2022/04/27 10:39:14;;;;;;;12.95;2.92;;;11.90;97.00;;;;;;4905956;29;20056;-75
2022/04/27 10:41:48;;;;;;;14.35;3.38;;;11.80;97.10;;;;;;4906617;29;20057;-75
2022/04/27 10:44:15;;;;;;;16.63;3.03;;;11.80;96.90;;;;;;4922709;29;20452;-73
2022/04/27 10:46:43;;;;;;;18.20;3.40;;;12.10;97.00;;;;;;4920973;29;20068;-74
2022/04/27 10:49:29;;;;;;;8.80;2.80;;;12.10;97.00;;;;;;4905740;29;20079;-74
2022/04/27 10:52:00;;;;;;;12.23;2.95;;;12.10;97.00;;;;;;4920858;29;20072;-74
2022/04/27 10:54:31;;;;;;;18.75;4.32;;;12.30;96.70;;;;;;4916595;29;20462;-76
2022/04/27 10:57:15;;;;;;;14.88;3.78;;;12.20;96.20;;;;;;4908468;29;20594;-74
2022/04/27 10:59:49;;;;;;;21.10;4.47;;;12.20;95.90;;;;;;4886476;29;20052;-73
2022/04/27 11:03:05;;;;;;;17.10;3.70;;;12.20;96.30;;;;;;4888704;29;20061;-75
2022/04/27 11:05:32;;;;;;;12.48;3.05;;;12.10;95.80;;;;;;4908600;29;20044;-73
2022/04/27 11:08:15;;;;;;;15.80;3.08;;;12.10;96.20;;;;;;4890793;29;20039;-75
2022/04/27 11:10:41;;;;;;;14.90;3.25;;;12.40;96.30;;;;;;4902525;29;20045;-75
2022/04/27 11:13:08;;;;;;;14.27;3.05;;;12.20;96.10;;;;;;4890731;29;20049;-75
2022/04/27 11:15:34;;;;;;;18.27;3.33;;;12.30;95.90;;;;;;4907531;29;20104;-73
2022/04/27 11:18:13;;;;;;;20.58;3.05;;;12.10;95.70;;;;;;4901957;29;20021;-73
2022/04/27 11:20:39;;;;;;;13.50;3.47;;;12.30;95.40;;;;;;4902794;29;20044;-75
2022/04/27 11:23:07;;;;;;;11.45;2.70;;;12.50;97.60;;;;;;4883857;29;20061;-74
2022/04/27 11:25:39;;;;;;;10.65;2.22;;;12.40;95.10;;;;;;4902016;29;20077;-76
2022/04/27 11:28:06;;;;;;;11.55;2.72;;;12.70;95.40;;;;;;4903572;29;20070;-74
2022/04/27 11:30:33;;;;;;;11.77;2.28;;;12.70;95.00;;;;;;4903420;29;20021;-75
2022/04/27 11:33:21;;;;;;;11.70;3.00;;;12.70;94.80;;;;;;4887530;29;20114;-74
2022/04/27 11:35:50;;;;;;;14.80;3.22;;;12.80;94.30;;;;;;4901721;29;20056;-77
2022/04/27 11:38:19;;;;;;;11.30;2.97;;;12.70;94.40;;;;;;4903441;29;20052;-73
2022/04/27 11:40:48;;;;;;;12.70;2.50;;;12.80;94.50;;;;;;4887789;29;20052;-73
2022/04/27 11:43:22;;;;;;;14.65;3.30;;;12.90;94.60;;;;;;4887624;29;20100;-73
2022/04/27 11:45:51;;;;;;;17.20;3.53;;;12.80;93.70;;;;;;4903552;29;20069;-73
2022/04/27 11:48:35;;;;;;;14.13;2.60;;;13.00;93.30;;;;;;4920598;29;20065;-75
2022/04/27 11:51:01;;;;;;;;;;;12.80;93.20;;;;;;4923043;29;20089;-74
2022/04/27 11:53:31;;;;;;;13.25;2.42;;;12.90;92.90;;;;;;4922245;29;19919;-73
2022/04/27 11:55:58;;;;;;;15.27;2.78;;;12.90;93.40;;;;;;4922149;29;20028;-74
2022/04/27 11:58:26;;;;;;;16.52;2.42;;;12.90;93.60;;;;;;4921165;29;20091;-75
2022/04/27 12:00:58;;;;;;;14.05;3.13;;;13.20;93.70;;;;;;4920748;29;20096;-74
2022/04/27 12:03:55;;;;;;;11.65;2.78;;;13.10;93.00;;;;;;4920817;29;20056;-74
2022/04/27 12:06:26;;;;;;;8.75;2.33;;;13.30;92.90;;;;;;4922242;29;20032;-73
2022/04/27 12:08:52;;;;;;;9.68;2.40;;;13.50;93.20;;;;;;4921026;29;20052;-73
2022/04/27 12:11:26;;;;;;;8.25;2.65;;;14.00;93.20;;;;;;4918653;29;20342;-75
2022/04/27 12:13:54;;;;;;;11.52;2.95;;;13.70;92.80;;;;;;4920732;29;20060;-74
2022/04/27 12:16:20;;;;;;;9.80;2.92;;;14.00;92.40;;;;;;4904191;29;20083;-73
2022/04/27 12:33:13;;;;;;;15.57;2.60;;;;;;;;;;4921397;29;20047;-75
2022/04/27 12:38:32;;;;;;;8.82;1.90;;;15.40;87.40;;;;;;4905834;29;20048;-76
2022/04/27 12:40:59;;;;;;;11.93;2.35;;;15.70;87.60;;;;;;4922365;29;20040;-76
2022/04/27 12:43:25;;;;;;;12.52;2.95;;;15.40;88.90;;;;;;4922525;29;20049;-77
2022/04/27 12:46:17;;;;;;;10.18;2.97;;;15.40;85.40;;;;;;4905880;29;20056;-74
2022/04/27 12:49:27;;;;;;;14.57;2.83;;;15.70;84.70;;;;;;4914970;29;20073;-75
2022/04/27 12:51:53;;;;;;;11.68;1.90;;;15.80;83.20;;;;;;4899847;29;20037;-74
2022/04/27 12:54:19;;;;;;;17.17;3.25;;;15.80;85.10;;;;;;4898459;29;20036;-76
2022/04/27 12:56:44;;;;;;;10.85;2.47;;;15.60;84.40;;;;;;4899421;29;20025;-74
2022/04/27 12:59:12;;;;;;;14.13;2.78;;;15.50;83.90;;;;;;4884276;29;20060;-76
2022/04/27 13:01:39;;;;;;;16.25;3.25;;;15.60;83.80;;;;;;4882227;29;20045;-75
2022/04/27 13:05:01;;;;;;;8.40;2.03;;;15.30;84.70;;;;;;4899761;29;20089;-74
2022/04/27 13:07:27;;;;;;;13.77;3.35;;;15.30;83.30;;;;;;4902018;29;20048;-74
2022/04/27 13:12:45;;;;;;;11.73;2.97;;;15.20;84.30;;;;;;5033479;23;20064;-74
2022/04/27 13:15:17;;;;;;;10.52;2.38;;;14.90;83.00;;;;;;4848330;29;20073;-72
2022/04/27 13:18:18;;;;;;;15.05;2.75;;;14.90;82.30;;;;;;4857310;29;20118;-75
2022/04/27 13:21:00;;;;;;;11.70;2.85;;;15.00;84.20;;;;;;4849202;29;20042;-75
2022/04/27 13:23:42;;;;;;;10.80;2.83;;;15.70;85.20;;;;;;4849729;29;20068;-75
2022/04/27 13:26:34;;;;;;;10.88;2.92;;;;;;;;;;4795917;30;20063;-75
2022/04/27 13:29:06;;;;;;;13.52;2.80;;;15.40;84.00;;;;;;4795377;30;20043;-76
2022/04/27 13:31:37;;;;;;;10.45;2.78;;;14.70;83.00;;;;;;4810115;30;20098;-74
2022/04/27 13:38:24;;;;;;;13.18;2.95;;;15.10;85.10;;;;;;4794939;30;20062;-76
2022/04/27 13:40:51;;;;;;;12.40;3.30;;;15.10;83.10;;;;;;4779357;30;20068;-74
2022/04/27 13:43:21;;;;;;;17.17;3.65;;;;;;;;;;4807776;30;20047;-74
2022/04/27 13:45:56;;;;;;;10.68;2.30;;;14.70;84.90;;;;;;4790466;30;20064;-74
2022/04/27 13:48:24;;;;;;;14.68;2.42;;;14.70;85.30;;;;;;4775621;30;20100;-74
2022/04/27 14:02:20;;;;;;;20.30;2.40;;;14.40;85.60;;;;;;4793805;30;20163;-75
2022/04/27 14:05:10;;;;;;;14.95;2.97;;;14.60;86.00;;;;;;4834128;29;20050;-76
2022/04/27 14:07:44;;;;;;;13.17;2.60;;;14.70;85.80;;;;;;4836991;29;20057;-74